sensor_id;sensor_type;location;lat;lon;timestamp;pressure;altitude;pressure_sealevel;temperature
72054;BMP280;59918;51.280;7.950;2024-03-02T00:00:33;96576.59;;;6.89
72054;BMP280;59918;51.280;7.950;2024-03-02T00:03:01;96573.06;;;6.90
72054;BMP280;59918;51.280;7.950;2024-03-02T00:05:26;96566.53;;;6.94
72054;BMP280;59918;51.280;7.950;2024-03-02T00:07:57;96570.44;;;6.96
72054;BMP280;59918;51.280;7.950;2024-03-02T00:10:25;96566.34;;;6.95
72054;BMP280;59918;51.280;7.950;2024-03-02T00:12:51;96567.53;;;6.93
72054;BMP280;59918;51.280;7.950;2024-03-02T00:17:41;96564.56;;;6.96
72054;BMP280;59918;51.280;7.950;2024-03-02T00:20:09;96582.03;;;6.99
72054;BMP280;59918;51.280;7.950;2024-03-02T00:22:35;96565.91;;;6.98
72054;BMP280;59918;51.280;7.950;2024-03-02T00:25:01;96574.38;;;6.99
72054;BMP280;59918;51.280;7.950;2024-03-02T00:27:26;96578.91;;;6.97
72054;BMP280;59918;51.280;7.950;2024-03-02T00:29:51;96575.34;;;6.98
72054;BMP280;59918;51.280;7.950;2024-03-02T00:32:16;96580.09;;;6.94
72054;BMP280;59918;51.280;7.950;2024-03-02T00:34:42;96566.38;;;6.89
72054;BMP280;59918;51.280;7.950;2024-03-02T00:37:08;96575.44;;;6.85
72054;BMP280;59918;51.280;7.950;2024-03-02T00:39:33;96575.44;;;6.85
72054;BMP280;59918;51.280;7.950;2024-03-02T00:41:59;96582.53;;;6.83
72054;BMP280;59918;51.280;7.950;2024-03-02T00:44:25;96579.41;;;6.81
72054;BMP280;59918;51.280;7.950;2024-03-02T00:46:50;96576.28;;;6.79
72054;BMP280;59918;51.280;7.950;2024-03-02T00:49:23;96593.59;;;6.77
72054;BMP280;59918;51.280;7.950;2024-03-02T00:51:50;96576.72;;;6.76
72054;BMP280;59918;51.280;7.950;2024-03-02T00:54:19;96580.06;;;6.77
72054;BMP280;59918;51.280;7.950;2024-03-02T00:56:45;96584.00;;;6.73
72054;BMP280;59918;51.280;7.950;2024-03-02T00:59:12;96580.31;;;6.69
72054;BMP280;59918;51.280;7.950;2024-03-02T01:01:37;96587.97;;;6.69
72054;BMP280;59918;51.280;7.950;2024-03-02T01:04:03;96596.22;;;6.71
72054;BMP280;59918;51.280;7.950;2024-03-02T01:06:28;96593.09;;;6.69
72054;BMP280;59918;51.280;7.950;2024-03-02T01:08:53;96588.19;;;6.67
72054;BMP280;59918;51.280;7.950;2024-03-02T01:11:18;96584.06;;;6.66
72054;BMP280;59918;51.280;7.950;2024-03-02T01:13:44;96580.31;;;6.69
72054;BMP280;59918;51.280;7.950;2024-03-02T01:16:10;96582.22;;;6.73
72054;BMP280;59918;51.280;7.950;2024-03-02T01:18:35;96588.50;;;6.77
72054;BMP280;59918;51.280;7.950;2024-03-02T01:21:00;96596.31;;;6.82
72054;BMP280;59918;51.280;7.950;2024-03-02T01:23:26;96586.47;;;6.86
72054;BMP280;59918;51.280;7.950;2024-03-02T01:25:51;96582.72;;;6.88
72054;BMP280;59918;51.280;7.950;2024-03-02T01:28:17;96578.53;;;6.93
72054;BMP280;59918;51.280;7.950;2024-03-02T01:30:43;96577.13;;;6.97
72054;BMP280;59918;51.280;7.950;2024-03-02T01:33:08;96565.13;;;6.98
72054;BMP280;59918;51.280;7.950;2024-03-02T01:35:33;96567.13;;;6.96
72054;BMP280;59918;51.280;7.950;2024-03-02T01:37:59;96564.00;;;6.94
72054;BMP280;59918;51.280;7.950;2024-03-02T01:40:24;96569.09;;;6.94
72054;BMP280;59918;51.280;7.950;2024-03-02T01:42:49;96564.34;;;6.97
72054;BMP280;59918;51.280;7.950;2024-03-02T01:45:15;96550.38;;;7.00
72054;BMP280;59918;51.280;7.950;2024-03-02T01:47:40;96556.25;;;7.00
72054;BMP280;59918;51.280;7.950;2024-03-02T01:50:05;96544.28;;;7.01
72054;BMP280;59918;51.280;7.950;2024-03-02T01:52:32;96549.16;;;7.02
72054;BMP280;59918;51.280;7.950;2024-03-02T01:54:57;96539.16;;;7.01
72054;BMP280;59918;51.280;7.950;2024-03-02T01:57:22;96538.81;;;6.97
72054;BMP280;59918;51.280;7.950;2024-03-02T01:59:48;96542.56;;;6.95
72054;BMP280;59918;51.280;7.950;2024-03-02T02:02:14;96536.44;;;6.96
72054;BMP280;59918;51.280;7.950;2024-03-02T02:04:40;96542.13;;;6.98
72054;BMP280;59918;51.280;7.950;2024-03-02T02:07:05;96529.91;;;7.00
72054;BMP280;59918;51.280;7.950;2024-03-02T02:09:30;96541.34;;;6.97
72054;BMP280;59918;51.280;7.950;2024-03-02T02:11:56;96531.34;;;6.96
72054;BMP280;59918;51.280;7.950;2024-03-02T02:14:21;96529.78;;;6.95
72054;BMP280;59918;51.280;7.950;2024-03-02T02:16:49;96534.09;;;6.94
72054;BMP280;59918;51.280;7.950;2024-03-02T02:19:14;96516.78;;;6.96
72054;BMP280;59918;51.280;7.950;2024-03-02T02:21:42;96517.91;;;7.00
72054;BMP280;59918;51.280;7.950;2024-03-02T02:24:07;96516.78;;;6.96
72054;BMP280;59918;51.280;7.950;2024-03-02T02:26:33;96520.75;;;6.92
72054;BMP280;59918;51.280;7.950;2024-03-02T02:28:58;96511.38;;;6.87
72054;BMP280;59918;51.280;7.950;2024-03-02T02:31:25;96514.13;;;6.85
72054;BMP280;59918;51.280;7.950;2024-03-02T02:33:51;96517.69;;;6.84
72054;BMP280;59918;51.280;7.950;2024-03-02T02:36:16;96518.09;;;6.81
72054;BMP280;59918;51.280;7.950;2024-03-02T02:38:44;96513.22;;;6.80
72054;BMP280;59918;51.280;7.950;2024-03-02T02:41:10;96514.41;;;6.77
72054;BMP280;59918;51.280;7.950;2024-03-02T02:43:36;96506.41;;;6.74
72054;BMP280;59918;51.280;7.950;2024-03-02T02:46:01;96509.38;;;6.71
72054;BMP280;59918;51.280;7.950;2024-03-02T02:48:26;96495.25;;;6.68
72054;BMP280;59918;51.280;7.950;2024-03-02T02:50:51;96497.88;;;6.62
72054;BMP280;59918;51.280;7.950;2024-03-02T02:53:17;96488.84;;;6.59
72054;BMP280;59918;51.280;7.950;2024-03-02T02:55:42;96492.38;;;6.58
72054;BMP280;59918;51.280;7.950;2024-03-02T02:58:07;96491.03;;;6.56
72054;BMP280;59918;51.280;7.950;2024-03-02T03:00:32;96488.50;;;6.56
72054;BMP280;59918;51.280;7.950;2024-03-02T03:02:58;96490.03;;;6.57
72054;BMP280;59918;51.280;7.950;2024-03-02T03:05:23;96487.28;;;6.58
72054;BMP280;59918;51.280;7.950;2024-03-02T03:07:48;96498.06;;;6.60
72054;BMP280;59918;51.280;7.950;2024-03-02T03:10:13;96497.06;;;6.61
72054;BMP280;59918;51.280;7.950;2024-03-02T03:12:39;96499.63;;;6.61
72054;BMP280;59918;51.280;7.950;2024-03-02T03:15:04;96490.78;;;6.64
72054;BMP280;59918;51.280;7.950;2024-03-02T03:17:30;96497.22;;;6.66
72054;BMP280;59918;51.280;7.950;2024-03-02T03:19:55;96495.88;;;6.64
72054;BMP280;59918;51.280;7.950;2024-03-02T03:22:20;96489.97;;;6.63
72054;BMP280;59918;51.280;7.950;2024-03-02T03:24:46;96501.00;;;6.64
72054;BMP280;59918;51.280;7.950;2024-03-02T03:27:11;96505.28;;;6.63
72054;BMP280;59918;51.280;7.950;2024-03-02T03:29:36;96495.50;;;6.60
72054;BMP280;59918;51.280;7.950;2024-03-02T03:32:02;96505.72;;;6.60
72054;BMP280;59918;51.280;7.950;2024-03-02T03:34:27;96494.78;;;6.53
72054;BMP280;59918;51.280;7.950;2024-03-02T03:36:55;96505.72;;;6.60
72054;BMP280;59918;51.280;7.950;2024-03-02T03:39:20;96496.72;;;6.58
72054;BMP280;59918;51.280;7.950;2024-03-02T03:41:45;96489.47;;;6.55
72054;BMP280;59918;51.280;7.950;2024-03-02T03:44:10;96476.31;;;6.52
72054;BMP280;59918;51.280;7.950;2024-03-02T03:46:36;96490.66;;;6.53
72054;BMP280;59918;51.280;7.950;2024-03-02T03:49:03;96479.88;;;6.51
72054;BMP280;59918;51.280;7.950;2024-03-02T03:51:28;96478.09;;;6.51
72054;BMP280;59918;51.280;7.950;2024-03-02T03:53:54;96490.09;;;6.51
72054;BMP280;59918;51.280;7.950;2024-03-02T03:56:19;96488.91;;;6.53
72054;BMP280;59918;51.280;7.950;2024-03-02T03:58:44;96488.13;;;6.53
72054;BMP280;59918;51.280;7.950;2024-03-02T04:01:09;96493.22;;;6.53
72054;BMP280;59918;51.280;7.950;2024-03-02T04:03:34;96498.91;;;6.54
72054;BMP280;59918;51.280;7.950;2024-03-02T04:06:00;96493.81;;;6.54
72054;BMP280;59918;51.280;7.950;2024-03-02T04:08:25;96499.47;;;6.56
72054;BMP280;59918;51.280;7.950;2024-03-02T04:10:50;96505.72;;;6.60
72054;BMP280;59918;51.280;7.950;2024-03-02T04:13:15;96504.16;;;6.59
72054;BMP280;59918;51.280;7.950;2024-03-02T04:15:41;96511.25;;;6.57
72054;BMP280;59918;51.280;7.950;2024-03-02T04:18:08;96515.56;;;6.57
72054;BMP280;59918;51.280;7.950;2024-03-02T04:20:33;96528.53;;;6.55
72054;BMP280;59918;51.280;7.950;2024-03-02T04:22:59;96524.59;;;6.59
72054;BMP280;59918;51.280;7.950;2024-03-02T04:25:24;96520.69;;;6.57
72054;BMP280;59918;51.280;7.950;2024-03-02T04:27:49;96517.34;;;6.56
72054;BMP280;59918;51.280;7.950;2024-03-02T04:30:17;96519.53;;;6.53
72054;BMP280;59918;51.280;7.950;2024-03-02T04:32:42;96517.03;;;6.47
72054;BMP280;59918;51.280;7.950;2024-03-02T04:35:07;96516.66;;;6.43
72054;BMP280;59918;51.280;7.950;2024-03-02T04:37:34;96524.13;;;6.45
72054;BMP280;59918;51.280;7.950;2024-03-02T04:39:59;96537.47;;;6.47
72054;BMP280;59918;51.280;7.950;2024-03-02T04:42:26;96527.47;;;6.45
72054;BMP280;59918;51.280;7.950;2024-03-02T04:44:52;96530.66;;;6.41
72054;BMP280;59918;51.280;7.950;2024-03-02T04:47:17;96536.72;;;6.40
72054;BMP280;59918;51.280;7.950;2024-03-02T04:49:42;96534.75;;;6.42
72054;BMP280;59918;51.280;7.950;2024-03-02T04:52:07;96538.88;;;6.43
72054;BMP280;59918;51.280;7.950;2024-03-02T04:54:33;96529.63;;;6.42
72054;BMP280;59918;51.280;7.950;2024-03-02T04:56:58;96531.84;;;6.38
72054;BMP280;59918;51.280;7.950;2024-03-02T04:59:23;96537.72;;;6.39
72054;BMP280;59918;51.280;7.950;2024-03-02T05:01:48;96538.69;;;6.38
72054;BMP280;59918;51.280;7.950;2024-03-02T05:04:14;96539.72;;;6.37
72054;BMP280;59918;51.280;7.950;2024-03-02T05:06:40;96541.88;;;6.33
72054;BMP280;59918;51.280;7.950;2024-03-02T05:09:08;96540.34;;;6.32
72054;BMP280;59918;51.280;7.950;2024-03-02T05:11:34;96532.88;;;6.31
72054;BMP280;59918;51.280;7.950;2024-03-02T05:13:59;96537.81;;;6.26
72054;BMP280;59918;51.280;7.950;2024-03-02T05:16:27;96538.44;;;6.21
72054;BMP280;59918;51.280;7.950;2024-03-02T05:18:52;96535.88;;;6.21
72054;BMP280;59918;51.280;7.950;2024-03-02T05:21:17;96537.09;;;6.19
72054;BMP280;59918;51.280;7.950;2024-03-02T05:23:43;96532.38;;;6.16
72054;BMP280;59918;51.280;7.950;2024-03-02T05:26:08;96543.78;;;6.14
72054;BMP280;59918;51.280;7.950;2024-03-02T05:28:33;96545.97;;;6.10
72054;BMP280;59918;51.280;7.950;2024-03-02T05:30:58;96550.50;;;6.08
72054;BMP280;59918;51.280;7.950;2024-03-02T05:33:26;96560.88;;;6.07
72054;BMP280;59918;51.280;7.950;2024-03-02T05:35:51;96562.66;;;6.06
72054;BMP280;59918;51.280;7.950;2024-03-02T05:38:16;96563.66;;;6.05
72054;BMP280;59918;51.280;7.950;2024-03-02T05:40:41;96562.66;;;6.06
72054;BMP280;59918;51.280;7.950;2024-03-02T05:43:07;96570.31;;;6.06
72054;BMP280;59918;51.280;7.950;2024-03-02T05:45:32;96578.19;;;6.05
72054;BMP280;59918;51.280;7.950;2024-03-02T05:47:57;96576.44;;;6.05
72054;BMP280;59918;51.280;7.950;2024-03-02T05:50:22;96572.47;;;6.09
72054;BMP280;59918;51.280;7.950;2024-03-02T05:52:48;96582.69;;;6.09
72054;BMP280;59918;51.280;7.950;2024-03-02T05:55:13;96571.28;;;6.12
72054;BMP280;59918;51.280;7.950;2024-03-02T05:57:38;96576.53;;;6.17
72054;BMP280;59918;51.280;7.950;2024-03-02T06:00:04;96583.03;;;6.19
72054;BMP280;59918;51.280;7.950;2024-03-02T06:02:29;96582.41;;;6.23
72054;BMP280;59918;51.280;7.950;2024-03-02T06:04:56;96586.88;;;6.28
72054;BMP280;59918;51.280;7.950;2024-03-02T06:07:21;96586.88;;;6.28
72054;BMP280;59918;51.280;7.950;2024-03-02T06:09:46;96589.84;;;6.25
72054;BMP280;59918;51.280;7.950;2024-03-02T06:12:11;96592.63;;;6.23
72054;BMP280;59918;51.280;7.950;2024-03-02T06:14:37;96588.13;;;6.19
72054;BMP280;59918;51.280;7.950;2024-03-02T06:17:02;96591.47;;;6.19
72054;BMP280;59918;51.280;7.950;2024-03-02T06:19:27;96596.38;;;6.21
72054;BMP280;59918;51.280;7.950;2024-03-02T06:21:52;96603.44;;;6.19
72054;BMP280;59918;51.280;7.950;2024-03-02T06:24:18;96604.22;;;6.19
72054;BMP280;59918;51.280;7.950;2024-03-02T06:26:43;96605.41;;;6.17
72054;BMP280;59918;51.280;7.950;2024-03-02T06:29:08;96610.91;;;6.14
72054;BMP280;59918;51.280;7.950;2024-03-02T06:31:33;96597.56;;;6.12
72054;BMP280;59918;51.280;7.950;2024-03-02T06:33:58;96609.38;;;6.13
72054;BMP280;59918;51.280;7.950;2024-03-02T06:36:26;96621.13;;;6.14
72054;BMP280;59918;51.280;7.950;2024-03-02T06:38:51;96617.94;;;6.18
72054;BMP280;59918;51.280;7.950;2024-03-02T06:41:16;96630.31;;;6.21
72054;BMP280;59918;51.280;7.950;2024-03-02T06:43:41;96624.44;;;6.21
72054;BMP280;59918;51.280;7.950;2024-03-02T06:46:07;96627.56;;;6.23
72054;BMP280;59918;51.280;7.950;2024-03-02T06:48:32;96630.13;;;6.23
72054;BMP280;59918;51.280;7.950;2024-03-02T06:50:57;96631.69;;;6.24
72054;BMP280;59918;51.280;7.950;2024-03-02T06:53:22;96620.25;;;6.26
72054;BMP280;59918;51.280;7.950;2024-03-02T06:55:48;96627.53;;;6.29
72054;BMP280;59918;51.280;7.950;2024-03-02T06:58:13;96618.47;;;6.33
72054;BMP280;59918;51.280;7.950;2024-03-02T07:00:39;96621.41;;;6.37
72054;BMP280;59918;51.280;7.950;2024-03-02T07:03:04;96625.31;;;6.39
72054;BMP280;59918;51.280;7.950;2024-03-02T07:05:29;96635.72;;;6.44
72054;BMP280;59918;51.280;7.950;2024-03-02T07:07:55;96623.28;;;6.48
72054;BMP280;59918;51.280;7.950;2024-03-02T07:10:20;96634.06;;;6.50
72054;BMP280;59918;51.280;7.950;2024-03-02T07:12:45;96640.00;;;6.50
72054;BMP280;59918;51.280;7.950;2024-03-02T07:15:10;96627.00;;;6.52
72054;BMP280;59918;51.280;7.950;2024-03-02T07:17:36;96630.34;;;6.52
72054;BMP280;59918;51.280;7.950;2024-03-02T07:20:01;96626.03;;;6.53
72054;BMP280;59918;51.280;7.950;2024-03-02T07:22:26;96620.28;;;6.57
72054;BMP280;59918;51.280;7.950;2024-03-02T07:24:51;96629.28;;;6.66
72054;BMP280;59918;51.280;7.950;2024-03-02T07:27:17;96628.00;;;6.75
72054;BMP280;59918;51.280;7.950;2024-03-02T07:29:43;96625.97;;;6.83
72054;BMP280;59918;51.280;7.950;2024-03-02T07:32:09;96629.69;;;6.87
72054;BMP280;59918;51.280;7.950;2024-03-02T07:34:35;96622.59;;;6.89
72054;BMP280;59918;51.280;7.950;2024-03-02T07:37:01;96636.28;;;7.01
72054;BMP280;59918;51.280;7.950;2024-03-02T07:39:27;96633.97;;;7.17
72054;BMP280;59918;51.280;7.950;2024-03-02T07:41:52;96636.94;;;7.38
72054;BMP280;59918;51.280;7.950;2024-03-02T07:44:18;96634.94;;;7.40
72054;BMP280;59918;51.280;7.950;2024-03-02T07:46:43;96630.13;;;7.50
72054;BMP280;59918;51.280;7.950;2024-03-02T07:49:09;96640.78;;;7.83
72054;BMP280;59918;51.280;7.950;2024-03-02T07:51:35;96631.75;;;8.16
72054;BMP280;59918;51.280;7.950;2024-03-02T07:54:00;96634.66;;;8.48
72054;BMP280;59918;51.280;7.950;2024-03-02T07:56:26;96644.03;;;8.83
72054;BMP280;59918;51.280;7.950;2024-03-02T07:58:54;96628.88;;;9.16
72054;BMP280;59918;51.280;7.950;2024-03-02T08:01:19;96633.34;;;9.54
72054;BMP280;59918;51.280;7.950;2024-03-02T08:03:45;96643.34;;;9.90
72054;BMP280;59918;51.280;7.950;2024-03-02T08:06:10;96638.31;;;10.06
72054;BMP280;59918;51.280;7.950;2024-03-02T08:08:36;96645.31;;;10.22
72054;BMP280;59918;51.280;7.950;2024-03-02T08:11:01;96641.41;;;10.19
72054;BMP280;59918;51.280;7.950;2024-03-02T08:13:26;96648.31;;;10.19
72054;BMP280;59918;51.280;7.950;2024-03-02T08:15:51;96640.13;;;10.33
72054;BMP280;59918;51.280;7.950;2024-03-02T08:18:16;96644.22;;;10.46
72054;BMP280;59918;51.280;7.950;2024-03-02T08:20:42;96638.78;;;10.58
72054;BMP280;59918;51.280;7.950;2024-03-02T08:23:07;96649.41;;;10.34
72054;BMP280;59918;51.280;7.950;2024-03-02T08:25:32;96646.00;;;10.06
72054;BMP280;59918;51.280;7.950;2024-03-02T08:27:58;96663.88;;;9.90
72054;BMP280;59918;51.280;7.950;2024-03-02T08:30:23;96657.09;;;9.73
72054;BMP280;59918;51.280;7.950;2024-03-02T08:32:48;96658.88;;;9.72
72054;BMP280;59918;51.280;7.950;2024-03-02T08:35:13;96669.28;;;9.77
72054;BMP280;59918;51.280;7.950;2024-03-02T08:37:40;96650.09;;;9.91
72054;BMP280;59918;51.280;7.950;2024-03-02T08:40:07;96661.66;;;10.05
72054;BMP280;59918;51.280;7.950;2024-03-02T08:42:33;96651.97;;;9.95
72054;BMP280;59918;51.280;7.950;2024-03-02T08:44:58;96654.09;;;9.87
72054;BMP280;59918;51.280;7.950;2024-03-02T08:47:24;96655.19;;;9.80
72054;BMP280;59918;51.280;7.950;2024-03-02T08:49:49;96664.91;;;9.78
72054;BMP280;59918;51.280;7.950;2024-03-02T08:52:14;96669.72;;;9.97
72054;BMP280;59918;51.280;7.950;2024-03-02T08:54:39;96679.34;;;10.29
72054;BMP280;59918;51.280;7.950;2024-03-02T08:57:05;96676.72;;;10.52
72054;BMP280;59918;51.280;7.950;2024-03-02T08:59:30;96668.75;;;10.81
72054;BMP280;59918;51.280;7.950;2024-03-02T09:01:56;96671.56;;;11.12
72054;BMP280;59918;51.280;7.950;2024-03-02T09:04:23;96680.47;;;11.37
72054;BMP280;59918;51.280;7.950;2024-03-02T09:06:48;96666.16;;;11.57
72054;BMP280;59918;51.280;7.950;2024-03-02T09:09:14;96666.13;;;11.73
72054;BMP280;59918;51.280;7.950;2024-03-02T09:11:39;96665.44;;;11.99
72054;BMP280;59918;51.280;7.950;2024-03-02T09:14:04;96652.66;;;12.30
72054;BMP280;59918;51.280;7.950;2024-03-02T09:16:32;96662.47;;;12.54
72054;BMP280;59918;51.280;7.950;2024-03-02T09:18:57;96652.56;;;12.68
72054;BMP280;59918;51.280;7.950;2024-03-02T09:21:23;96662.34;;;12.92
72054;BMP280;59918;51.280;7.950;2024-03-02T09:23:48;96651.47;;;13.16
72054;BMP280;59918;51.280;7.950;2024-03-02T09:26:14;96671.22;;;13.37
72054;BMP280;59918;51.280;7.950;2024-03-02T09:28:43;96672.28;;;13.36
72054;BMP280;59918;51.280;7.950;2024-03-02T09:31:08;96672.66;;;13.54
72054;BMP280;59918;51.280;7.950;2024-03-02T09:33:33;96671.25;;;13.73
72054;BMP280;59918;51.280;7.950;2024-03-02T09:35:58;96656.56;;;13.83
72054;BMP280;59918;51.280;7.950;2024-03-02T09:38:24;96660.06;;;14.03
72054;BMP280;59918;51.280;7.950;2024-03-02T09:40:49;96668.09;;;14.07
72054;BMP280;59918;51.280;7.950;2024-03-02T09:43:14;96662.53;;;14.39
72054;BMP280;59918;51.280;7.950;2024-03-02T09:45:40;96657.16;;;14.56
72054;BMP280;59918;51.280;7.950;2024-03-02T09:48:05;96645.56;;;14.88
72054;BMP280;59918;51.280;7.950;2024-03-02T09:50:30;96668.84;;;14.78
72054;BMP280;59918;51.280;7.950;2024-03-02T09:52:56;96644.81;;;14.97
72054;BMP280;59918;51.280;7.950;2024-03-02T09:55:21;96646.66;;;15.41
72054;BMP280;59918;51.280;7.950;2024-03-02T09:57:47;96645.06;;;15.74
72054;BMP280;59918;51.280;7.950;2024-03-02T10:00:13;96657.16;;;16.04
72054;BMP280;59918;51.280;7.950;2024-03-02T10:02:38;96654.53;;;16.13
72054;BMP280;59918;51.280;7.950;2024-03-02T10:05:03;96647.66;;;16.47
72054;BMP280;59918;51.280;7.950;2024-03-02T10:07:29;96624.16;;;16.77
72054;BMP280;59918;51.280;7.950;2024-03-02T10:09:54;96631.94;;;16.72
72054;BMP280;59918;51.280;7.950;2024-03-02T10:12:19;96630.06;;;17.25
72054;BMP280;59918;51.280;7.950;2024-03-02T10:14:45;96616.84;;;17.73
72054;BMP280;59918;51.280;7.950;2024-03-02T10:17:12;96629.50;;;18.07
72054;BMP280;59918;51.280;7.950;2024-03-02T10:19:38;96605.56;;;18.28
72054;BMP280;59918;51.280;7.950;2024-03-02T10:22:04;96619.47;;;18.19
72054;BMP280;59918;51.280;7.950;2024-03-02T10:24:43;96616.84;;;18.42
72054;BMP280;59918;51.280;7.950;2024-03-02T10:29:41;96620.94;;;18.66
72054;BMP280;59918;51.280;7.950;2024-03-02T10:32:10;96622.97;;;18.51
72054;BMP280;59918;51.280;7.950;2024-03-02T10:34:35;96619.59;;;18.09
72054;BMP280;59918;51.280;7.950;2024-03-02T10:37:01;96620.31;;;18.56
72054;BMP280;59918;51.280;7.950;2024-03-02T10:39:27;96617.53;;;18.48
72054;BMP280;59918;51.280;7.950;2024-03-02T10:41:55;96616.75;;;18.65
72054;BMP280;59918;51.280;7.950;2024-03-02T10:44:22;96619.78;;;18.91
72054;BMP280;59918;51.280;7.950;2024-03-02T10:46:49;96623.03;;;19.19
72054;BMP280;59918;51.280;7.950;2024-03-02T10:49:14;96614.91;;;19.52
72054;BMP280;59918;51.280;7.950;2024-03-02T10:51:40;96610.22;;;19.04
72054;BMP280;59918;51.280;7.950;2024-03-02T10:54:05;96619.56;;;19.24
72054;BMP280;59918;51.280;7.950;2024-03-02T10:56:32;96611.25;;;19.67
72054;BMP280;59918;51.280;7.950;2024-03-02T11:01:34;96629.16;;;20.66
72054;BMP280;59918;51.280;7.950;2024-03-02T11:04:02;96622.00;;;20.45
72054;BMP280;59918;51.280;7.950;2024-03-02T11:06:29;96613.97;;;19.62
72054;BMP280;59918;51.280;7.950;2024-03-02T11:08:57;96618.91;;;20.30
72054;BMP280;59918;51.280;7.950;2024-03-02T11:11:28;96607.06;;;20.59
72054;BMP280;59918;51.280;7.950;2024-03-02T11:13:56;96598.25;;;21.03
72054;BMP280;59918;51.280;7.950;2024-03-02T11:16:34;96606.50;;;21.19
72054;BMP280;59918;51.280;7.950;2024-03-02T11:19:03;96617.44;;;21.42
72054;BMP280;59918;51.280;7.950;2024-03-02T11:21:29;96619.97;;;21.34
72054;BMP280;59918;51.280;7.950;2024-03-02T11:23:54;96593.16;;;21.80
72054;BMP280;59918;51.280;7.950;2024-03-02T11:26:20;96607.84;;;21.90
72054;BMP280;59918;51.280;7.950;2024-03-02T11:28:47;96606.59;;;21.35
72054;BMP280;59918;51.280;7.950;2024-03-02T11:31:12;96600.72;;;21.82
72054;BMP280;59918;51.280;7.950;2024-03-02T11:33:38;96615.50;;;21.48
72054;BMP280;59918;51.280;7.950;2024-03-02T11:36:03;96602.22;;;21.23
72054;BMP280;59918;51.280;7.950;2024-03-02T11:38:31;96594.03;;;22.06
72054;BMP280;59918;51.280;7.950;2024-03-02T11:40:57;96601.16;;;21.75
72054;BMP280;59918;51.280;7.950;2024-03-02T11:43:22;96600.63;;;21.95
72054;BMP280;59918;51.280;7.950;2024-03-02T11:45:47;96601.72;;;22.02
72054;BMP280;59918;51.280;7.950;2024-03-02T11:48:16;96599.50;;;20.84
72054;BMP280;59918;51.280;7.950;2024-03-02T11:50:49;96595.91;;;21.23
72054;BMP280;59918;51.280;7.950;2024-03-02T11:53:15;96595.16;;;20.80
72054;BMP280;59918;51.280;7.950;2024-03-02T11:55:40;96592.03;;;19.63
72054;BMP280;59918;51.280;7.950;2024-03-02T11:58:07;96593.94;;;19.44
72054;BMP280;59918;51.280;7.950;2024-03-02T12:00:32;96587.28;;;19.51
72054;BMP280;59918;51.280;7.950;2024-03-02T12:05:27;96579.03;;;22.28
72054;BMP280;59918;51.280;7.950;2024-03-02T12:08:00;96579.06;;;22.78
72054;BMP280;59918;51.280;7.950;2024-03-02T12:10:26;96571.84;;;23.09
72054;BMP280;59918;51.280;7.950;2024-03-02T12:12:58;96581.19;;;23.44
72054;BMP280;59918;51.280;7.950;2024-03-02T12:15:28;96571.41;;;23.61
72054;BMP280;59918;51.280;7.950;2024-03-02T12:17:55;96581.16;;;23.97
72054;BMP280;59918;51.280;7.950;2024-03-02T12:20:20;96578.22;;;23.53
72054;BMP280;59918;51.280;7.950;2024-03-02T12:22:45;96579.06;;;22.78
72054;BMP280;59918;51.280;7.950;2024-03-02T12:25:11;96594.00;;;21.37
72054;BMP280;59918;51.280;7.950;2024-03-02T12:27:37;96582.81;;;20.58
72054;BMP280;59918;51.280;7.950;2024-03-02T12:30:04;96572.81;;;21.17
72054;BMP280;59918;51.280;7.950;2024-03-02T12:32:29;96562.13;;;20.00
72054;BMP280;59918;51.280;7.950;2024-03-02T12:34:55;96579.91;;;18.95
72054;BMP280;59918;51.280;7.950;2024-03-02T12:37:20;96570.28;;;18.59
72054;BMP280;59918;51.280;7.950;2024-03-02T12:39:45;96587.91;;;18.07
72054;BMP280;59918;51.280;7.950;2024-03-02T12:42:10;96583.44;;;18.31
72054;BMP280;59918;51.280;7.950;2024-03-02T12:44:36;96570.97;;;20.26
72054;BMP280;59918;51.280;7.950;2024-03-02T12:47:01;96571.31;;;19.98
72054;BMP280;59918;51.280;7.950;2024-03-02T12:49:26;96573.16;;;19.97
72054;BMP280;59918;51.280;7.950;2024-03-02T12:51:51;96561.66;;;19.98
72054;BMP280;59918;51.280;7.950;2024-03-02T12:54:18;96574.59;;;19.32
72054;BMP280;59918;51.280;7.950;2024-03-02T12:56:43;96571.38;;;19.08
72054;BMP280;59918;51.280;7.950;2024-03-02T12:59:08;96562.19;;;20.22
72054;BMP280;59918;51.280;7.950;2024-03-02T13:01:34;96568.25;;;20.79
72054;BMP280;59918;51.280;7.950;2024-03-02T13:03:59;96558.63;;;20.88
72054;BMP280;59918;51.280;7.950;2024-03-02T13:06:25;96571.22;;;20.64
72054;BMP280;59918;51.280;7.950;2024-03-02T13:08:51;96550.44;;;19.98
72054;BMP280;59918;51.280;7.950;2024-03-02T13:11:16;96564.03;;;19.55
72054;BMP280;59918;51.280;7.950;2024-03-02T13:13:42;96564.13;;;18.87
72054;BMP280;59918;51.280;7.950;2024-03-02T13:16:09;96551.38;;;18.85
72054;BMP280;59918;51.280;7.950;2024-03-02T13:18:34;96555.34;;;18.64
72054;BMP280;59918;51.280;7.950;2024-03-02T13:20:59;96557.75;;;18.43
72054;BMP280;59918;51.280;7.950;2024-03-02T13:23:25;96570.25;;;18.23
72054;BMP280;59918;51.280;7.950;2024-03-02T13:25:50;96561.53;;;18.32
72054;BMP280;59918;51.280;7.950;2024-03-02T13:28:15;96570.06;;;18.74
72054;BMP280;59918;51.280;7.950;2024-03-02T13:30:40;96544.09;;;19.32
72054;BMP280;59918;51.280;7.950;2024-03-02T13:33:06;96539.44;;;19.87
72054;BMP280;59918;51.280;7.950;2024-03-02T13:35:31;96530.19;;;19.81
72054;BMP280;59918;51.280;7.950;2024-03-02T13:37:56;96536.16;;;19.95
72054;BMP280;59918;51.280;7.950;2024-03-02T13:40:21;96530.63;;;20.80
72054;BMP280;59918;51.280;7.950;2024-03-02T13:42:47;96525.91;;;21.81
72054;BMP280;59918;51.280;7.950;2024-03-02T13:45:13;96522.00;;;21.31
72054;BMP280;59918;51.280;7.950;2024-03-02T13:47:38;96533.28;;;20.53
72054;BMP280;59918;51.280;7.950;2024-03-02T13:50:04;96535.94;;;19.92
72054;BMP280;59918;51.280;7.950;2024-03-02T13:52:29;96528.56;;;19.54
72054;BMP280;59918;51.280;7.950;2024-03-02T13:54:54;96527.00;;;19.26
72054;BMP280;59918;51.280;7.950;2024-03-02T13:57:19;96525.28;;;19.22
72054;BMP280;59918;51.280;7.950;2024-03-02T13:59:45;96524.06;;;19.73
72054;BMP280;59918;51.280;7.950;2024-03-02T14:02:12;96523.63;;;19.26
72054;BMP280;59918;51.280;7.950;2024-03-02T14:04:37;96534.44;;;18.88
72054;BMP280;59918;51.280;7.950;2024-03-02T14:07:03;96534.31;;;18.61
72054;BMP280;59918;51.280;7.950;2024-03-02T14:09:28;96518.72;;;18.25
72054;BMP280;59918;51.280;7.950;2024-03-02T14:11:54;96529.19;;;18.20
72054;BMP280;59918;51.280;7.950;2024-03-02T14:14:20;96516.81;;;18.30
72054;BMP280;59918;51.280;7.950;2024-03-02T14:16:45;96527.16;;;18.53